Time;durP1;ratioP1;P1;durP2;ratioP2;P2;SDS_P1;SDS_P2;PMS_P1;PMS_P2;Temp;Humidity;BMP_temperature;BMP_pressure;BME280_temperature;BME280_humidity;BME280_pressure;Samples;Min_cycle;Max_cycle;Signal;HPM_P1;HPM_P2
2022/12/26 00:01:30;;;;;;;4.83;3.60;;;10.30;99.90;;;;;;5040338;28;20195;-87
2022/12/26 00:03:56;;;;;;;4.20;3.53;;;10.30;99.90;;;;;;5040763;28;20170;-87
2022/12/26 00:06:24;;;;;;;4.97;3.63;;;10.30;99.90;;;;;;5039217;28;20245;-87
2022/12/26 00:08:50;;;;;;;4.00;3.30;;;10.30;99.90;;;;;;5039541;28;20185;-87
2022/12/26 00:11:16;;;;;;;3.40;2.93;;;10.30;99.90;;;;;;5039953;28;20566;-87
2022/12/26 00:13:44;;;;;;;4.43;3.30;;;10.30;99.90;;;;;;5040599;28;20214;-87
2022/12/26 00:16:17;;;;;;;4.30;3.27;;;10.30;99.90;;;;;;5040437;28;20206;-87
2022/12/26 00:18:44;;;;;;;4.30;3.30;;;10.30;99.90;;;;;;5039225;28;20171;-88
2022/12/26 00:21:12;;;;;;;3.60;3.23;;;10.40;99.90;;;;;;5039787;28;20191;-87
2022/12/26 00:23:39;;;;;;;5.03;3.17;;;10.30;99.90;;;;;;5040829;28;20229;-87
2022/12/26 00:26:05;;;;;;;4.03;3.20;;;10.40;99.90;;;;;;5041276;28;20174;-88
2022/12/26 00:28:31;;;;;;;4.43;3.60;;;10.40;99.90;;;;;;5041456;28;20247;-87
2022/12/26 00:30:57;;;;;;;5.30;3.53;;;10.40;99.90;;;;;;5041020;28;20261;-87
2022/12/26 00:33:22;;;;;;;4.47;3.27;;;10.30;99.90;;;;;;5040252;28;20193;-88
2022/12/26 00:35:48;;;;;;;4.87;3.40;;;10.30;99.90;;;;;;5039292;28;20206;-87
2022/12/26 00:38:15;;;;;;;5.13;3.67;;;10.20;99.90;;;;;;5040182;28;20166;-88
2022/12/26 00:40:42;;;;;;;3.50;2.97;;;10.30;99.90;;;;;;5040683;28;20195;-87
2022/12/26 00:43:08;;;;;;;4.37;3.33;;;10.20;99.90;;;;;;5040779;28;20172;-87
2022/12/26 00:45:34;;;;;;;6.47;3.20;;;10.30;99.90;;;;;;5040700;28;20234;-88
2022/12/26 00:48:00;;;;;;;3.67;3.00;;;10.30;99.90;;;;;;5039796;28;20179;-88
2022/12/26 00:50:26;;;;;;;3.83;2.97;;;10.40;99.90;;;;;;5040446;28;20206;-88
2022/12/26 00:52:52;;;;;;;4.10;3.17;;;10.30;99.90;;;;;;5037989;28;20189;-87
2022/12/26 00:55:18;;;;;;;6.13;3.50;;;10.30;99.90;;;;;;5040853;28;20194;-87
2022/12/26 00:57:43;;;;;;;4.83;3.30;;;10.40;99.90;;;;;;5039556;28;20174;-86
2022/12/26 01:00:09;;;;;;;5.87;3.60;;;10.40;99.90;;;;;;5039385;28;20217;-87
2022/12/26 01:02:38;;;;;;;4.87;3.13;;;10.40;99.90;;;;;;5038749;28;20174;-87
2022/12/26 01:05:08;;;;;;;3.67;3.07;;;10.50;99.90;;;;;;5039985;28;20182;-87
2022/12/26 01:07:38;;;;;;;5.37;3.40;;;10.50;99.90;;;;;;5040997;28;20174;-87
2022/12/26 01:10:07;;;;;;;3.70;3.17;;;10.40;99.90;;;;;;5039155;28;20194;-87
2022/12/26 01:12:33;;;;;;;3.50;3.03;;;10.40;99.90;;;;;;5039830;28;20386;-87
2022/12/26 01:14:59;;;;;;;3.97;3.30;;;10.40;99.90;;;;;;5039145;28;20209;-87
2022/12/26 01:17:27;;;;;;;3.67;3.03;;;10.40;99.90;;;;;;5040955;28;20166;-88
2022/12/26 01:19:53;;;;;;;3.90;3.17;;;10.40;99.90;;;;;;5039502;28;20225;-87
2022/12/26 01:22:19;;;;;;;4.33;3.03;;;10.50;99.90;;;;;;5038792;28;20175;-87
2022/12/26 01:24:45;;;;;;;4.10;3.30;;;10.50;99.90;;;;;;5040055;28;20179;-87
2022/12/26 01:27:11;;;;;;;3.57;2.70;;;10.60;99.90;;;;;;5039486;28;20181;-87
2022/12/26 01:29:36;;;;;;;4.03;3.07;;;10.60;99.90;;;;;;5039552;28;20178;-87
2022/12/26 01:32:02;;;;;;;4.27;2.97;;;10.60;99.90;;;;;;5040373;28;20166;-87
2022/12/26 01:34:28;;;;;;;4.20;3.17;;;10.60;99.90;;;;;;5039808;28;20171;-87
2022/12/26 01:36:54;;;;;;;4.60;2.70;;;10.50;99.90;;;;;;5040267;28;20217;-87
2022/12/26 01:39:20;;;;;;;2.83;2.50;;;10.50;99.90;;;;;;5038916;28;20174;-88
2022/12/26 01:41:46;;;;;;;4.70;2.93;;;10.50;99.90;;;;;;5038704;28;20174;-87
2022/12/26 01:44:48;;;;;;;4.57;3.10;;;10.50;99.90;;;;;;5040436;28;20190;-88
2022/12/26 01:47:15;;;;;;;4.27;2.90;;;10.50;99.90;;;;;;5040393;28;20198;-87
2022/12/26 01:49:46;;;;;;;5.03;2.83;;;10.50;99.90;;;;;;5040329;28;20202;-87
2022/12/26 01:52:20;;;;;;;3.60;3.10;;;10.50;99.90;;;;;;5039438;28;20174;-87
2022/12/26 01:54:50;;;;;;;3.30;2.70;;;10.60;99.90;;;;;;5039349;28;20181;-86
2022/12/26 01:57:41;;;;;;;4.07;2.60;;;10.60;99.90;;;;;;5039056;28;20209;-87
2022/12/26 02:00:07;;;;;;;4.90;2.70;;;10.60;99.90;;;;;;5030697;28;20256;-87
2022/12/26 02:05:32;;;;;;;4.00;2.63;;;10.60;99.90;;;;;;5038988;28;20248;-87
2022/12/26 02:05:35;;;;;;;3.30;2.87;;;10.60;99.90;;;;;;5043776;28;20284;-87
2022/12/26 02:08:22;;;;;;;3.83;3.00;;;10.70;99.90;;;;;;5043447;28;20205;-88
2022/12/26 02:11:08;;;;;;;4.47;2.70;;;10.70;99.90;;;;;;5043027;28;20260;-89
2022/12/26 02:13:36;;;;;;;5.10;2.83;;;10.60;99.90;;;;;;5043776;28;20242;-87
2022/12/26 02:16:07;;;;;;;4.60;2.83;;;10.60;99.90;;;;;;5043278;28;20202;-87
2022/12/26 02:18:33;;;;;;;4.70;3.10;;;10.70;99.90;;;;;;5041400;28;20174;-87
2022/12/26 02:21:04;;;;;;;3.67;2.87;;;10.70;99.90;;;;;;5042774;28;20559;-87
2022/12/26 02:23:46;;;;;;;3.63;2.70;;;10.70;99.90;;;;;;5042786;28;20197;-88
2022/12/26 02:26:29;;;;;;;3.80;2.70;;;10.60;99.90;;;;;;5042993;28;20175;-87
2022/12/26 02:29:19;;;;;;;4.40;2.83;;;10.70;99.90;;;;;;5044097;28;20201;-88
2022/12/26 02:31:48;;;;;;;5.57;3.10;;;10.70;99.90;;;;;;5030625;28;20197;-88
2022/12/26 02:34:19;;;;;;;5.63;3.10;;;10.70;99.90;;;;;;5021890;28;20171;-87
2022/12/26 02:36:48;;;;;;;2.93;2.60;;;10.70;99.90;;;;;;5023264;28;20187;-88
2022/12/26 02:39:31;;;;;;;5.07;2.80;;;10.70;99.90;;;;;;5023371;28;20179;-88
2022/12/26 02:42:08;;;;;;;3.50;2.87;;;10.70;99.90;;;;;;5022474;28;20171;-87
2022/12/26 02:47:46;;;;;;;3.03;2.53;;;10.80;99.90;;;;;;5023788;28;20185;-87
2022/12/26 03:14:11;;;;;;;4.17;2.57;;;10.90;99.90;;;;;;5023394;28;20228;-88
2022/12/26 03:19:25;;;;;;;2.90;2.40;;;10.90;99.90;;;;;;5023308;28;20185;-87
2022/12/26 03:21:51;;;;;;;4.00;3.00;;;10.90;99.90;;;;;;5022474;28;20175;-87
2022/12/26 03:24:17;;;;;;;3.57;2.80;;;10.80;99.90;;;;;;5021757;28;20171;-87
2022/12/26 03:26:50;;;;;;;5.30;3.17;;;10.80;99.90;;;;;;5023540;28;20237;-87
2022/12/26 03:32:09;;;;;;;3.70;2.60;;;10.80;99.90;;;;;;5023157;28;20214;-87
2022/12/26 03:34:40;;;;;;;5.83;3.00;;;10.80;99.90;;;;;;5022042;28;20238;-87
2022/12/26 03:37:28;;;;;;;3.27;2.50;;;10.80;99.90;;;;;;5022261;28;20186;-87
2022/12/26 04:44:22;;;;;;;3.53;2.50;;;10.50;99.90;;;;;;5053006;28;20537;-82
2022/12/26 04:46:48;;;;;;;3.50;2.50;;;10.40;99.90;;;;;;5053306;28;20227;-82
2022/12/26 04:52:01;;;;;;;4.57;2.87;;;10.40;99.90;;;;;;5053348;28;20583;-82
2022/12/26 04:54:27;;;;;;;4.47;2.60;;;10.30;99.90;;;;;;5051059;28;20645;-82
2022/12/26 04:56:53;;;;;;;4.20;2.70;;;10.30;99.90;;;;;;5035105;28;20211;-82
2022/12/26 04:59:20;;;;;;;4.60;2.70;;;10.30;99.90;;;;;;5053088;28;20177;-82
2022/12/26 05:10:04;;;;;;;3.53;2.60;;;10.20;99.90;;;;;;5053022;28;20726;-82
2022/12/26 05:12:30;;;;;;;2.77;2.40;;;10.20;99.90;;;;;;5052076;28;20706;-82
2022/12/26 05:14:55;;;;;;;4.97;2.90;;;10.20;99.90;;;;;;5034656;28;20206;-82
2022/12/26 05:28:42;;;;;;;3.43;2.60;;;10.30;99.90;;;;;;5052827;28;20241;-82
2022/12/26 05:31:10;;;;;;;4.37;2.50;;;10.40;99.90;;;;;;5052358;28;20273;-82
2022/12/26 05:36:22;;;;;;;5.50;2.83;;;10.40;99.90;;;;;;5052913;28;20204;-82
2022/12/26 05:38:48;;;;;;;4.60;2.73;;;10.40;99.90;;;;;;5051996;28;20240;-82
2022/12/26 05:41:14;;;;;;;3.73;2.53;;;10.40;99.90;;;;;;5052359;28;20186;-81
2022/12/26 05:43:40;;;;;;;5.37;2.93;;;10.40;99.90;;;;;;5051811;28;20162;-82
2022/12/26 05:46:05;;;;;;;3.97;2.57;;;10.40;99.90;;;;;;5034405;28;20176;-80
2022/12/26 05:48:31;;;;;;;3.50;2.97;;;10.40;99.90;;;;;;5035023;28;20180;-81
2022/12/26 05:51:02;;;;;;;4.57;2.90;;;10.50;99.90;;;;;;5052972;28;20209;-84
2022/12/26 05:53:29;;;;;;;5.90;2.73;;;10.40;99.90;;;;;;5033980;28;20228;-82
2022/12/26 05:55:55;;;;;;;4.50;2.97;;;10.40;99.90;;;;;;5033152;28;20209;-82
2022/12/26 05:58:20;;;;;;;5.87;2.80;;;10.40;99.90;;;;;;5034516;28;20253;-82
2022/12/26 06:00:46;;;;;;;5.50;2.80;;;10.50;99.90;;;;;;5034527;28;20680;-82
2022/12/26 06:03:12;;;;;;;3.47;2.50;;;10.40;99.90;;;;;;5051690;28;20216;-82
2022/12/26 06:05:37;;;;;;;3.97;2.73;;;10.40;99.90;;;;;;5034360;28;20181;-82
2022/12/26 06:08:03;;;;;;;4.10;2.50;;;10.30;99.90;;;;;;5052343;28;20209;-83
2022/12/26 06:10:29;;;;;;;3.07;2.70;;;10.40;99.90;;;;;;5034284;28;20205;-83
2022/12/26 06:12:55;;;;;;;4.20;3.00;;;10.40;99.90;;;;;;5034032;28;20213;-83
2022/12/26 06:15:21;;;;;;;2.80;2.43;;;10.40;99.90;;;;;;5052139;28;20288;-82
2022/12/26 06:17:47;;;;;;;4.40;2.60;;;10.30;99.90;;;;;;5052499;28;20174;-83
2022/12/26 06:20:12;;;;;;;3.60;2.40;;;10.40;99.90;;;;;;5034296;28;20204;-83
2022/12/26 06:22:38;;;;;;;3.73;2.70;;;10.30;99.90;;;;;;5051694;28;20174;-83
2022/12/26 06:25:04;;;;;;;3.70;2.60;;;10.40;99.90;;;;;;5034534;28;20177;-83
2022/12/26 06:27:30;;;;;;;4.30;2.50;;;10.50;99.90;;;;;;5052792;28;20224;-83
2022/12/26 06:29:55;;;;;;;5.37;2.47;;;10.40;99.90;;;;;;5034392;28;20308;-83
2022/12/26 06:32:21;;;;;;;3.93;2.43;;;10.40;99.90;;;;;;5034145;28;20174;-83
2022/12/26 06:34:47;;;;;;;3.10;2.57;;;10.40;99.90;;;;;;5034229;28;20177;-83
2022/12/26 06:37:12;;;;;;;5.50;2.83;;;10.50;99.90;;;;;;5034872;28;20180;-84
2022/12/26 06:39:38;;;;;;;3.50;2.50;;;10.50;99.90;;;;;;5034776;28;20170;-85
2022/12/26 06:42:04;;;;;;;4.13;2.50;;;10.50;99.90;;;;;;5034383;28;20221;-86
2022/12/26 06:44:29;;;;;;;3.53;2.60;;;10.50;99.90;;;;;;5051579;28;20247;-86
2022/12/26 06:46:55;;;;;;;3.97;2.40;;;10.50;99.90;;;;;;5052389;28;20256;-85
2022/12/26 06:49:20;;;;;;;3.17;2.47;;;10.50;99.90;;;;;;5035416;28;20197;-84
2022/12/26 06:51:46;;;;;;;4.17;2.70;;;10.50;99.90;;;;;;5055679;28;20210;-84
2022/12/26 06:54:12;;;;;;;3.53;2.73;;;10.50;99.90;;;;;;5035849;28;20181;-86
2022/12/26 06:56:37;;;;;;;3.17;2.53;;;10.50;99.90;;;;;;5056260;28;20323;-84
2022/12/26 06:59:05;;;;;;;4.57;2.50;;;10.40;99.90;;;;;;5056036;28;20227;-83
2022/12/26 07:01:32;;;;;;;3.63;2.57;;;10.50;99.90;;;;;;5055419;28;20293;-82
2022/12/26 07:03:59;;;;;;;5.27;2.53;;;10.50;99.90;;;;;;5055214;28;20200;-88
2022/12/26 07:06:29;;;;;;;4.87;3.63;;;10.40;99.90;;;;;;5055342;28;20196;-88
2022/12/26 07:09:11;;;;;;;4.73;3.17;;;10.40;99.90;;;;;;5055067;28;20173;-85
2022/12/26 07:11:39;;;;;;;3.50;2.70;;;10.40;99.90;;;;;;5037304;28;20709;-89
2022/12/26 07:14:05;;;;;;;3.87;2.90;;;10.40;99.90;;;;;;5036454;28;20173;-90
2022/12/26 07:16:34;;;;;;;5.30;3.10;;;10.40;99.90;;;;;;5054840;28;20246;-89
2022/12/26 07:19:00;;;;;;;5.83;2.53;;;10.40;99.90;;;;;;5037178;28;20177;-84
2022/12/26 07:21:26;;;;;;;3.57;2.47;;;10.30;99.90;;;;;;5047819;28;20202;-85
2022/12/26 07:23:53;;;;;;;4.03;2.50;;;10.30;99.90;;;;;;5036494;28;20259;-81
2022/12/26 07:26:19;;;;;;;4.37;2.37;;;10.40;99.90;;;;;;5055113;28;20177;-83
2022/12/26 07:28:44;;;;;;;3.47;2.40;;;10.40;99.90;;;;;;5054922;28;20261;-84
2022/12/26 07:31:18;;;;;;;3.40;2.50;;;10.30;99.90;;;;;;5054640;28;20221;-84
2022/12/26 07:33:52;;;;;;;4.40;2.70;;;10.30;99.90;;;;;;5036027;28;20185;-87
2022/12/26 07:36:18;;;;;;;4.43;2.70;;;10.30;99.90;;;;;;5031994;28;20210;-88
2022/12/26 07:38:44;;;;;;;3.70;2.90;;;10.30;99.90;;;;;;5051051;28;20176;-86
2022/12/26 07:43:54;;;;;;;3.77;2.70;;;10.20;99.90;;;;;;5055777;28;20161;-83
2022/12/26 07:46:20;;;;;;;4.27;2.70;;;10.10;99.90;;;;;;5054857;28;20174;-83
2022/12/26 07:48:46;;;;;;;5.93;3.17;;;10.20;99.90;;;;;;5036723;28;20181;-83
2022/12/26 07:51:12;;;;;;;4.00;2.60;;;10.20;99.90;;;;;;5036390;28;20240;-91
2022/12/26 07:53:38;;;;;;;4.90;2.80;;;10.20;99.90;;;;;;5035446;28;20257;-87
2022/12/26 07:56:03;;;;;;;4.73;3.20;;;10.20;99.90;;;;;;5035775;28;20207;-86
2022/12/26 07:58:29;;;;;;;6.33;3.37;;;10.20;99.90;;;;;;5053843;28;20203;-89
2022/12/26 08:00:55;;;;;;;5.17;2.93;;;10.10;99.90;;;;;;5051842;28;20198;-81
2022/12/26 08:03:20;;;;;;;4.40;2.50;;;10.10;99.90;;;;;;5051554;28;20247;-82
2022/12/26 08:05:47;;;;;;;3.27;2.77;;;10.10;99.90;;;;;;5030603;28;20180;-84
2022/12/26 08:08:13;;;;;;;6.57;3.30;;;10.10;99.90;;;;;;5051659;28;20231;-83
2022/12/26 08:10:39;;;;;;;5.90;2.97;;;10.10;99.90;;;;;;5034275;28;20197;-83
2022/12/26 08:13:05;;;;;;;3.93;2.83;;;10.10;99.90;;;;;;5053868;28;20227;-83
2022/12/26 08:15:30;;;;;;;3.33;2.77;;;10.10;99.90;;;;;;5036157;28;20292;-83
2022/12/26 08:17:56;;;;;;;4.43;3.20;;;10.10;99.90;;;;;;5053961;28;20190;-87
2022/12/26 08:20:22;;;;;;;5.17;3.20;;;10.00;99.90;;;;;;5036089;28;20212;-83
2022/12/26 08:22:48;;;;;;;5.13;3.00;;;10.00;99.90;;;;;;5053741;28;20595;-85
2022/12/26 08:25:13;;;;;;;4.90;3.20;;;9.90;99.90;;;;;;5035973;28;20204;-84
2022/12/26 08:27:39;;;;;;;3.83;2.77;;;9.90;99.90;;;;;;5053787;28;20640;-84
2022/12/26 08:30:05;;;;;;;3.53;2.90;;;9.90;99.90;;;;;;5053751;28;20196;-84
2022/12/26 08:32:31;;;;;;;5.40;3.37;;;9.90;99.90;;;;;;5035595;28;20187;-84
2022/12/26 08:34:56;;;;;;;4.93;3.20;;;9.90;99.90;;;;;;5036548;28;20553;-84
2022/12/26 08:37:25;;;;;;;3.80;3.17;;;9.90;99.90;;;;;;5054080;28;20170;-83
2022/12/26 08:39:52;;;;;;;4.73;3.00;;;9.90;99.90;;;;;;5053371;28;20181;-83
2022/12/26 08:42:18;;;;;;;5.40;3.30;;;9.90;99.90;;;;;;5035431;28;20193;-83
2022/12/26 08:44:44;;;;;;;4.87;3.00;;;9.90;99.90;;;;;;5035869;28;20170;-84
2022/12/26 08:47:10;;;;;;;4.47;3.23;;;9.90;99.90;;;;;;5053677;28;20203;-84
2022/12/26 08:49:35;;;;;;;6.83;3.27;;;9.90;99.90;;;;;;5053890;28;20636;-83
2022/12/26 08:52:01;;;;;;;4.30;2.63;;;9.90;99.90;;;;;;5052875;28;20218;-83
2022/12/26 08:54:27;;;;;;;3.60;2.93;;;10.00;99.90;;;;;;5052684;28;20269;-86
2022/12/26 08:56:52;;;;;;;5.80;3.07;;;10.00;99.90;;;;;;5053554;28;20213;-87
2022/12/26 08:59:18;;;;;;;4.63;2.80;;;10.00;99.90;;;;;;5053221;28;20227;-83
2022/12/26 09:01:44;;;;;;;4.47;2.90;;;10.00;99.90;;;;;;5053454;28;20257;-84
2022/12/26 09:04:09;;;;;;;3.57;2.80;;;10.00;99.90;;;;;;5033576;28;20205;-85
2022/12/26 09:06:37;;;;;;;4.90;2.60;;;10.00;99.90;;;;;;5035165;28;20182;-84
2022/12/26 09:09:03;;;;;;;4.63;2.90;;;10.00;99.90;;;;;;5035419;28;20211;-84
2022/12/26 09:11:29;;;;;;;3.80;2.60;;;10.00;99.90;;;;;;5035732;28;20280;-84
2022/12/26 09:13:57;;;;;;;4.20;2.50;;;10.00;99.90;;;;;;5052108;28;20184;-84
2022/12/26 09:16:26;;;;;;;3.40;2.57;;;10.00;99.90;;;;;;5035355;28;20209;-86
2022/12/26 09:18:55;;;;;;;3.87;2.60;;;10.00;99.90;;;;;;5053542;28;20182;-85
2022/12/26 09:21:20;;;;;;;3.70;2.70;;;10.00;99.90;;;;;;5053013;28;20257;-85
2022/12/26 09:23:46;;;;;;;4.43;3.00;;;10.00;99.90;;;;;;5053031;28;20247;-85
2022/12/26 09:26:15;;;;;;;3.43;2.60;;;10.00;99.90;;;;;;5035472;28;20594;-84
2022/12/26 09:28:40;;;;;;;3.60;2.57;;;10.00;99.90;;;;;;5035412;28;20178;-84
2022/12/26 09:31:13;;;;;;;3.23;2.30;;;10.00;99.90;;;;;;5034948;28;20212;-85
2022/12/26 09:33:39;;;;;;;3.73;2.30;;;10.00;99.90;;;;;;5034771;28;20177;-84
2022/12/26 09:36:07;;;;;;;3.80;2.67;;;10.00;99.90;;;;;;5053217;28;20212;-85
2022/12/26 09:38:33;;;;;;;2.73;2.20;;;10.00;99.90;;;;;;5051702;28;20554;-85
2022/12/26 09:41:14;;;;;;;3.03;2.13;;;9.90;99.90;;;;;;5053370;28;20189;-84
2022/12/26 09:44:07;;;;;;;3.33;2.60;;;9.90;99.90;;;;;;5051489;28;20181;-85
2022/12/26 09:46:41;;;;;;;5.53;3.10;;;9.90;99.90;;;;;;5051369;28;20200;-86
2022/12/26 09:49:19;;;;;;;4.37;2.90;;;9.90;99.90;;;;;;5052711;28;20180;-85
2022/12/26 09:51:50;;;;;;;4.33;2.37;;;9.90;99.90;;;;;;5079232;22;20247;-85
2022/12/26 09:54:29;;;;;;;2.83;2.00;;;9.90;99.90;;;;;;5071844;28;20175;-84
2022/12/26 09:56:55;;;;;;;3.90;2.40;;;9.90;99.90;;;;;;5054431;28;20283;-84
2022/12/26 09:59:24;;;;;;;3.13;2.50;;;9.90;99.90;;;;;;5054071;28;20194;-84
2022/12/26 10:01:51;;;;;;;3.07;2.30;;;9.90;99.90;;;;;;5058686;28;20691;-84
2022/12/26 10:04:26;;;;;;;3.03;2.27;;;9.90;99.90;;;;;;5051629;28;20264;-83
2022/12/26 10:07:04;;;;;;;2.43;2.10;;;9.90;99.90;;;;;;5034095;28;20207;-84
2022/12/26 10:09:51;;;;;;;2.93;2.07;;;9.90;99.90;;;;;;5049125;28;20188;-85
2022/12/26 10:12:24;;;;;;;3.83;2.30;;;9.90;99.90;;;;;;5037532;28;20196;-84
2022/12/26 10:14:53;;;;;;;3.23;2.60;;;9.90;99.90;;;;;;5033798;28;20174;-85
2022/12/26 10:17:41;;;;;;;2.57;1.97;;;9.80;99.90;;;;;;5051865;28;20265;-85
2022/12/26 10:20:24;;;;;;;2.20;1.90;;;9.80;99.90;;;;;;5033936;28;20184;-85
2022/12/26 10:23:00;;;;;;;3.00;2.10;;;9.90;99.90;;;;;;5051595;28;20178;-85
2022/12/26 10:25:45;;;;;;;2.33;2.13;;;9.90;99.90;;;;;;5055193;28;20184;-84
2022/12/26 10:28:22;;;;;;;2.80;2.17;;;9.90;99.90;;;;;;5055929;28;20177;-83
2022/12/26 10:30:49;;;;;;;2.73;2.30;;;9.90;99.90;;;;;;5037807;28;20189;-84
2022/12/26 10:33:33;;;;;;;2.70;2.23;;;9.90;99.90;;;;;;5055359;28;20177;-85
2022/12/26 10:35:59;;;;;;;3.50;2.53;;;9.90;99.90;;;;;;5055617;28;20200;-84
2022/12/26 10:38:34;;;;;;;3.03;2.20;;;9.90;99.90;;;;;;5055644;28;20169;-84
2022/12/26 10:41:30;;;;;;;3.23;2.77;;;9.90;99.90;;;;;;5037874;28;20192;-84
2022/12/26 10:43:55;;;;;;;3.03;2.20;;;9.90;99.90;;;;;;5034679;28;20207;-86
2022/12/26 10:46:54;;;;;;;3.13;2.40;;;9.90;99.90;;;;;;5057726;28;20200;-86
2022/12/26 10:49:23;;;;;;;3.27;2.40;;;9.90;99.90;;;;;;5031636;28;20169;-83
2022/12/26 10:51:50;;;;;;;3.70;2.37;;;10.00;99.90;;;;;;5055889;28;20212;-84
2022/12/26 10:54:18;;;;;;;3.60;2.37;;;10.00;99.90;;;;;;5055383;28;20253;-84
2022/12/26 10:56:47;;;;;;;2.83;2.40;;;10.00;99.90;;;;;;5055896;28;20197;-78
2022/12/26 10:59:19;;;;;;;3.03;2.60;;;10.10;99.90;;;;;;5038912;28;20241;-81
2022/12/26 11:01:48;;;;;;;2.87;2.30;;;10.20;99.90;;;;;;5037947;28;20195;-81
2022/12/26 11:04:21;;;;;;;3.80;2.30;;;10.20;99.90;;;;;;5037974;28;20174;-81
2022/12/26 11:06:51;;;;;;;4.83;2.57;;;10.20;99.90;;;;;;5055779;28;20714;-82
2022/12/26 11:09:42;;;;;;;2.93;2.23;;;10.30;99.90;;;;;;5055859;28;20180;-83
2022/12/26 11:12:24;;;;;;;3.13;2.27;;;10.20;99.90;;;;;;5046846;28;20225;-81
2022/12/26 11:15:00;;;;;;;2.40;2.00;;;10.30;99.90;;;;;;5037606;28;20639;-87
2022/12/26 11:17:29;;;;;;;3.00;2.10;;;10.30;99.90;;;;;;5036876;28;20560;-85
2022/12/26 11:20:22;;;;;;;3.80;2.30;;;10.30;99.90;;;;;;5054911;28;20182;-86
2022/12/26 11:22:48;;;;;;;3.63;2.33;;;10.30;99.90;;;;;;5028709;28;20235;-85
2022/12/26 11:25:26;;;;;;;3.27;2.40;;;10.30;99.90;;;;;;5036860;28;20204;-86
2022/12/26 11:27:56;;;;;;;3.10;2.40;;;10.30;99.90;;;;;;5054490;28;20253;-86
2022/12/26 11:30:22;;;;;;;4.53;2.43;;;10.30;99.90;;;;;;5036517;28;20173;-84
2022/12/26 11:33:08;;;;;;;3.67;2.10;;;10.30;99.90;;;;;;5054078;28;20177;-86
2022/12/26 11:35:36;;;;;;;4.30;2.10;;;10.30;99.90;;;;;;5053803;28;20204;-82
2022/12/26 11:38:08;;;;;;;3.63;2.10;;;10.40;99.90;;;;;;5036955;28;20176;-82
2022/12/26 11:40:38;;;;;;;4.00;2.13;;;10.40;99.90;;;;;;5036927;28;20251;-84
2022/12/26 11:43:15;;;;;;;37.83;11.73;;;10.50;99.90;;;;;;5053669;28;20549;-83
2022/12/26 11:45:47;;;;;;;4.53;2.30;;;10.60;99.90;;;;;;5036883;28;20285;-81
2022/12/26 11:48:24;;;;;;;11.37;4.37;;;10.80;99.90;;;;;;5055005;28;20181;-79
2022/12/26 11:50:54;;;;;;;9.37;3.83;;;11.00;99.90;;;;;;5036893;28;20213;-82
2022/12/26 11:53:21;;;;;;;2.40;1.80;;;11.40;99.90;;;;;;5053777;28;20236;-82
2022/12/26 11:56:23;;;;;;;2.40;1.90;;;11.20;99.90;;;;;;5054209;28;20205;-82
2022/12/26 11:58:55;;;;;;;2.13;1.70;;;11.00;99.90;;;;;;5037041;28;20181;-82
2022/12/26 12:01:21;;;;;;;2.07;1.63;;;10.90;99.90;;;;;;5036248;28;20683;-82
2022/12/26 12:03:47;;;;;;;2.57;1.60;;;10.70;99.90;;;;;;5053537;28;20181;-82
2022/12/26 12:06:28;;;;;;;2.80;1.60;;;10.70;99.90;;;;;;5036380;28;20186;-82
2022/12/26 12:09:24;;;;;;;3.50;1.60;;;10.70;99.90;;;;;;5036113;28;20178;-82
2022/12/26 12:12:08;;;;;;;2.30;1.80;;;10.60;99.90;;;;;;5053762;28;20193;-82
2022/12/26 12:14:43;;;;;;;1.97;1.50;;;10.50;99.90;;;;;;5053571;28;20196;-82
2022/12/26 12:17:27;;;;;;;3.00;1.90;;;10.50;99.90;;;;;;5053837;28;20208;-83
2022/12/26 12:19:52;;;;;;;1.93;1.60;;;10.50;99.90;;;;;;5054314;28;20265;-82
2022/12/26 12:22:52;;;;;;;1.63;1.53;;;10.50;99.90;;;;;;5053292;28;20259;-82
2022/12/26 12:25:27;;;;;;;2.20;1.40;;;10.50;99.90;;;;;;5004327;28;20189;-82
2022/12/26 12:28:40;;;;;;;1.83;1.50;;;10.50;99.90;;;;;;5035834;28;20204;-82
2022/12/26 12:31:24;;;;;;;1.60;1.30;;;10.40;99.90;;;;;;5009272;28;20210;-82
2022/12/26 12:34:30;;;;;;;1.60;1.50;;;10.50;99.90;;;;;;5034765;28;20294;-82
2022/12/26 12:37:13;;;;;;;2.17;1.60;;;10.50;99.90;;;;;;5051121;28;20201;-82
2022/12/26 12:39:57;;;;;;;2.60;1.53;;;10.40;99.90;;;;;;5053575;28;20594;-82
2022/12/26 12:42:46;;;;;;;1.90;1.50;;;10.40;99.90;;;;;;5034968;28;20217;-82
2022/12/26 12:45:20;;;;;;;2.00;1.47;;;10.40;99.90;;;;;;5035520;28;20184;-82
2022/12/26 12:47:52;;;;;;;1.90;1.60;;;10.40;99.90;;;;;;5053342;28;20181;-82
2022/12/26 12:50:52;;;;;;;1.63;1.40;;;10.40;99.90;;;;;;5052718;28;20243;-81
2022/12/26 12:53:26;;;;;;;5.00;1.70;;;10.40;99.90;;;;;;5035127;28;20231;-83
2022/12/26 12:56:16;;;;;;;1.93;1.30;;;10.40;99.90;;;;;;5052652;28;20210;-81
2022/12/26 12:59:02;;;;;;;1.77;1.50;;;10.40;99.90;;;;;;5035398;28;20208;-83
2022/12/26 13:01:40;;;;;;;1.73;1.57;;;10.40;99.90;;;;;;5053471;28;20200;-83
2022/12/26 13:04:18;;;;;;;3.60;2.50;;;10.40;99.90;;;;;;5034218;28;20174;-83
2022/12/26 13:06:58;;;;;;;1.93;1.83;;;10.40;99.90;;;;;;5035058;28;20173;-82
2022/12/26 13:09:46;;;;;;;3.30;2.97;;;10.30;99.90;;;;;;5052982;28;20235;-84
2022/12/26 13:12:26;;;;;;;2.97;2.33;;;10.30;99.90;;;;;;5052596;28;20253;-82
2022/12/26 13:14:57;;;;;;;1.70;1.60;;;10.30;99.90;;;;;;5052819;28;20660;-82
2022/12/26 13:17:56;;;;;;;2.23;1.57;;;10.30;99.90;;;;;;5035363;28;20331;-80
2022/12/26 13:20:37;;;;;;;1.43;1.30;;;10.30;99.90;;;;;;5053297;28;20537;-82
2022/12/26 13:26:26;;;;;;;2.83;1.63;;;10.30;99.90;;;;;;5048902;28;20261;-82
2022/12/26 13:29:18;;;;;;;3.63;3.33;;;10.30;99.90;;;;;;5059279;28;20196;-83
2022/12/26 13:31:44;;;;;;;2.57;1.70;;;10.30;99.90;;;;;;5034566;28;20190;-82
2022/12/26 13:34:17;;;;;;;2.20;1.70;;;10.20;99.90;;;;;;5051923;28;20199;-83
2022/12/26 13:36:49;;;;;;;1.60;1.50;;;10.20;99.90;;;;;;5052587;28;20301;-82
2022/12/26 13:39:24;;;;;;;1.87;1.63;;;10.20;99.90;;;;;;5052389;28;20224;-86
2022/12/26 13:44:52;;;;;;;1.87;1.60;;;10.20;99.90;;;;;;5051056;28;20185;-80
2022/12/26 13:47:37;;;;;;;1.90;1.70;;;10.20;99.90;;;;;;5034240;28;20189;-82
2022/12/26 13:50:41;;;;;;;2.33;1.50;;;10.20;99.90;;;;;;5034123;28;20205;-82
2022/12/26 13:53:36;;;;;;;1.93;1.80;;;10.10;99.90;;;;;;5051669;28;20207;-82
2022/12/26 13:56:03;;;;;;;2.30;2.03;;;10.10;99.90;;;;;;5049773;28;20209;-82
2022/12/26 13:58:47;;;;;;;2.07;1.87;;;10.10;99.90;;;;;;5051653;28;20178;-82
2022/12/26 14:01:41;;;;;;;2.23;2.00;;;10.10;99.90;;;;;;5052501;28;20208;-82
2022/12/26 14:04:38;;;;;;;2.77;2.40;;;10.10;99.90;;;;;;5015707;28;20675;-82
2022/12/26 14:07:19;;;;;;;4.03;1.83;;;10.10;99.90;;;;;;5035088;28;20243;-82
2022/12/26 14:10:10;;;;;;;3.40;1.50;;;10.00;99.90;;;;;;5052462;28;20315;-82
2022/12/26 14:12:59;;;;;;;2.10;1.50;;;10.00;99.90;;;;;;5034034;28;20201;-81
2022/12/26 14:15:36;;;;;;;2.93;1.80;;;10.00;99.90;;;;;;5034501;28;20791;-82
2022/12/26 14:18:45;;;;;;;2.17;1.70;;;10.00;99.90;;;;;;5052513;28;20169;-80
2022/12/26 14:21:46;;;;;;;1.80;1.50;;;10.00;99.90;;;;;;4952405;28;20193;-81
2022/12/26 14:24:12;;;;;;;3.10;1.90;;;10.00;99.90;;;;;;4952404;29;20305;-81
2022/12/26 14:27:03;;;;;;;1.97;1.30;;;9.90;99.90;;;;;;5014433;28;20205;-81
2022/12/26 14:29:39;;;;;;;2.93;1.80;;;9.90;99.90;;;;;;5052198;28;20162;-81
2022/12/26 14:32:41;;;;;;;3.97;2.20;;;9.90;99.90;;;;;;5052215;28;20270;-81
2022/12/26 14:35:06;;;;;;;3.37;3.03;;;9.90;99.90;;;;;;5052140;28;20180;-81
2022/12/26 14:37:43;;;;;;;2.60;2.00;;;9.90;99.90;;;;;;5052196;28;20182;-83
2022/12/26 14:40:33;;;;;;;1.80;1.60;;;9.90;99.90;;;;;;5034234;28;20180;-82
2022/12/26 14:43:11;;;;;;;1.57;1.47;;;9.80;99.90;;;;;;5051708;28;20647;-81
2022/12/26 14:46:03;;;;;;;3.20;2.90;;;9.70;99.90;;;;;;5033819;28;20182;-81
2022/12/26 14:48:28;;;;;;;1.87;1.67;;;9.70;99.90;;;;;;5043195;28;20672;-83
2022/12/26 14:51:14;;;;;;;2.87;1.50;;;9.70;99.90;;;;;;5051834;28;20224;-81
2022/12/26 14:53:41;;;;;;;2.50;1.70;;;9.70;99.90;;;;;;5019594;28;20188;-81
2022/12/26 14:56:07;;;;;;;3.30;1.80;;;9.70;99.90;;;;;;5052040;28;20335;-83
2022/12/26 14:58:42;;;;;;;2.23;1.97;;;9.70;99.90;;;;;;5034073;28;20273;-82
2022/12/26 15:01:07;;;;;;;2.13;1.70;;;9.70;99.90;;;;;;5051992;28;20211;-81
2022/12/26 15:03:58;;;;;;;1.90;1.73;;;9.70;99.90;;;;;;5051315;28;20174;-83
2022/12/26 15:06:54;;;;;;;2.03;1.57;;;9.60;99.90;;;;;;5051797;28;20184;-81
2022/12/26 15:09:22;;;;;;;2.67;1.80;;;9.60;99.90;;;;;;5051925;28;20177;-81
2022/12/26 15:12:18;;;;;;;1.83;1.40;;;9.60;99.90;;;;;;5054012;28;20605;-81
2022/12/26 15:15:11;;;;;;;2.27;1.40;;;9.60;99.90;;;;;;5037726;28;20182;-82
2022/12/26 15:17:42;;;;;;;5.07;1.60;;;9.50;99.90;;;;;;5037763;28;20271;-82
2022/12/26 15:20:36;;;;;;;1.90;1.23;;;9.50;99.90;;;;;;5037684;28;20166;-82
2022/12/26 15:23:14;;;;;;;1.40;1.30;;;9.40;99.90;;;;;;5036530;28;20181;-83
2022/12/26 15:26:04;;;;;;;1.47;1.30;;;9.40;99.90;;;;;;5037301;28;20183;-82
2022/12/26 15:28:30;;;;;;;1.77;1.20;;;9.40;99.90;;;;;;5055264;28;20170;-81